Time;durP1;ratioP1;P1;durP2;ratioP2;P2;SDS_P1;SDS_P2;PMS_P1;PMS_P2;Temp;Humidity;BMP_temperature;BMP_pressure;BME280_temperature;BME280_humidity;BME280_pressure;Samples;Min_cycle;Max_cycle;Signal;HPM_P1;HPM_P2
2021/07/16 00:00:51;;;;;;;;;11.75;10.50;;;;;;;;5078474;28;46967;-84
2021/07/16 00:03:16;;;;;;;;;11.50;10.25;;;;;;;;5078002;28;47666;-83
2021/07/16 00:05:41;;;;;;;;;9.00;9.00;;;;;;;;5078007;28;47053;-85
2021/07/16 00:08:06;;;;;;;;;11.50;9.75;;;;;;;;5059875;28;46961;-84
2021/07/16 00:10:32;;;;;;;;;10.50;9.75;;;;;;;;5059676;28;46911;-83
2021/07/16 00:12:57;;;;;;;;;17.25;12.75;;;;;;;;5077556;28;47790;-84
2021/07/16 00:15:23;;;;;;;;;13.00;10.00;;;;;;;;5077962;28;46867;-83
2021/07/16 00:17:49;;;;;;;;;17.75;13.00;;;;;;;;5078139;28;46846;-84
2021/07/16 00:20:15;;;;;;;;;13.50;12.00;;;;;;;;5078306;28;46724;-84
2021/07/16 00:22:40;;;;;;;;;11.25;10.50;;;;;;;;5064494;28;46889;-83
2021/07/16 00:25:07;;;;;;;;;10.50;10.50;;;;;;;;5064527;28;46865;-83
2021/07/16 00:27:32;;;;;;;;;12.25;12.25;;;;;;;;5077585;28;46766;-83
2021/07/16 00:29:57;;;;;;;;;11.00;11.00;;;;;;;;5078307;28;46798;-83
2021/07/16 00:32:23;;;;;;;;;13.75;13.00;;;;;;;;5077642;28;46835;-84
2021/07/16 00:34:48;;;;;;;;;13.50;11.75;;;;;;;;5072208;27;46909;-84
2021/07/16 00:37:13;;;;;;;;;16.00;15.25;;;;;;;;5057626;28;47303;-83
2021/07/16 00:39:39;;;;;;;;;15.50;14.00;;;;;;;;5039314;28;46881;-84
2021/07/16 00:42:04;;;;;;;;;17.25;14.50;;;;;;;;5057107;28;46944;-84
2021/07/16 00:44:32;;;;;;;;;14.75;14.75;;;;;;;;5059180;28;47178;-84
2021/07/16 00:46:57;;;;;;;;;14.00;13.50;;;;;;;;5061136;28;46929;-84
2021/07/16 00:49:22;;;;;;;;;13.50;12.00;;;;;;;;5061029;28;46952;-84
2021/07/16 00:51:48;;;;;;;;;15.00;13.50;;;;;;;;5060674;28;48019;-84
2021/07/16 00:54:13;;;;;;;;;16.00;13.75;;;;;;;;5060693;28;47090;-84
2021/07/16 00:56:39;;;;;;;;;14.00;12.00;;;;;;;;5060738;28;46806;-84
2021/07/16 00:59:04;;;;;;;;;14.50;14.50;;;;;;;;5060706;28;46838;-83
2021/07/16 01:01:30;;;;;;;;;15.00;13.75;;;;;;;;5060621;28;47616;-83
2021/07/16 01:03:55;;;;;;;;;10.25;10.25;;;;;;;;5060610;28;46793;-83
2021/07/16 01:06:21;;;;;;;;;12.75;11.50;;;;;;;;5060697;28;47140;-83
2021/07/16 01:08:46;;;;;;;;;13.50;13.00;;;;;;;;5060761;28;47083;-84
2021/07/16 01:11:11;;;;;;;;;17.25;15.00;;;;;;;;5060258;28;46857;-83
2021/07/16 01:13:37;;;;;;;;;14.50;13.00;;;;;;;;5060021;28;46784;-83
2021/07/16 01:16:03;;;;;;;;;15.50;14.75;;;;;;;;5042329;28;46892;-84
2021/07/16 01:18:28;;;;;;;;;11.75;11.50;;;;;;;;5042327;28;47320;-83
2021/07/16 01:20:53;;;;;;;;;10.50;9.00;;;;;;;;5065132;28;47013;-83
2021/07/16 01:23:22;;;;;;;;;11.50;8.75;;;;;;;;5063058;28;47015;-83
2021/07/16 01:25:47;;;;;;;;;15.75;15.25;;;;;;;;5060331;28;47398;-83
2021/07/16 01:28:13;;;;;;;;;13.00;12.75;;;;;;;;5059992;28;47080;-83
2021/07/16 01:30:39;;;;;;;;;13.00;11.75;;;;;;;;5071090;28;46923;-83
2021/07/16 01:33:05;;;;;;;;;12.00;10.75;;;;;;;;5067222;27;47022;-83
2021/07/16 01:35:31;;;;;;;;;5.75;5.25;;;;;;;;5069519;28;47044;-83
2021/07/16 01:37:57;;;;;;;;;14.25;13.75;;;;;;;;5060545;28;47111;-83
2021/07/16 01:40:23;;;;;;;;;15.50;14.50;;;;;;;;5059962;28;46794;-83
2021/07/16 01:42:50;;;;;;;;;11.50;9.75;;;;;;;;5059721;28;47007;-83
2021/07/16 01:45:17;;;;;;;;;15.00;14.75;;;;;;;;5060215;28;47071;-84
2021/07/16 01:47:48;;;;;;;;;12.00;11.25;;;;;;;;5060179;28;46911;-83
2021/07/16 01:50:14;;;;;;;;;15.75;14.00;;;;;;;;5059972;28;47680;-83
2021/07/16 01:52:39;;;;;;;;;16.50;11.75;;;;;;;;5059668;28;46855;-83
2021/07/16 01:55:05;;;;;;;;;10.75;10.00;;;;;;;;5041052;28;46979;-83
2021/07/16 01:57:30;;;;;;;;;12.50;11.25;;;;;;;;5041239;28;46995;-83
2021/07/16 01:59:56;;;;;;;;;12.25;11.25;;;;;;;;5059868;28;46925;-83
2021/07/16 02:02:21;;;;;;;;;13.50;13.00;;;;;;;;5059528;28;47083;-83
2021/07/16 02:04:46;;;;;;;;;10.25;9.75;;;;;;;;5059763;28;46951;-83
2021/07/16 02:07:12;;;;;;;;;13.25;11.75;;;;;;;;5041453;28;47205;-83
2021/07/16 02:09:37;;;;;;;;;13.25;10.75;;;;;;;;5059545;28;46986;-83
2021/07/16 02:12:03;;;;;;;;;13.75;13.50;;;;;;;;5058926;28;47238;-84
2021/07/16 02:14:29;;;;;;;;;11.75;11.75;;;;;;;;5041498;28;46967;-84
2021/07/16 02:16:54;;;;;;;;;12.00;12.00;;;;;;;;5059678;28;46850;-84
2021/07/16 02:19:20;;;;;;;;;14.75;13.50;;;;;;;;5059534;28;47084;-83
2021/07/16 02:21:45;;;;;;;;;12.50;10.75;;;;;;;;5067349;28;46796;-83
2021/07/16 02:24:11;;;;;;;;;14.00;13.75;;;;;;;;5041376;28;47028;-83
2021/07/16 02:26:36;;;;;;;;;13.25;12.00;;;;;;;;5059197;28;46828;-83
2021/07/16 02:29:02;;;;;;;;;12.50;11.75;;;;;;;;5059356;28;47139;-83
2021/07/16 02:31:27;;;;;;;;;13.00;12.50;;;;;;;;5059251;28;47064;-83
2021/07/16 02:33:52;;;;;;;;;13.00;12.25;;;;;;;;5070217;28;46982;-83
2021/07/16 02:36:18;;;;;;;;;10.75;9.75;;;;;;;;5062068;28;46721;-82
2021/07/16 02:38:44;;;;;;;;;11.00;10.00;;;;;;;;5040994;28;48521;-83
2021/07/16 02:41:09;;;;;;;;;10.00;10.00;;;;;;;;5059045;28;46978;-83
2021/07/16 02:43:36;;;;;;;;;13.00;12.50;;;;;;;;5040838;28;47150;-82
2021/07/16 02:46:01;;;;;;;;;14.50;12.50;;;;;;;;5041041;28;46960;-83
2021/07/16 02:48:27;;;;;;;;;13.00;11.75;;;;;;;;5059054;28;47796;-83
2021/07/16 02:50:52;;;;;;;;;13.00;11.00;;;;;;;;5040873;28;46835;-83
2021/07/16 02:53:20;;;;;;;;;11.25;11.00;;;;;;;;5058944;28;47006;-83
2021/07/16 02:55:46;;;;;;;;;15.50;14.00;;;;;;;;5059060;28;47019;-83
2021/07/16 02:58:11;;;;;;;;;13.75;12.00;;;;;;;;5058444;28;46960;-83
2021/07/16 03:00:37;;;;;;;;;9.00;8.75;;;;;;;;5058680;28;46907;-83
2021/07/16 03:03:02;;;;;;;;;14.00;12.00;;;;;;;;5058970;28;46916;-83
2021/07/16 03:05:34;;;;;;;;;11.50;10.50;;;;;;;;5058846;28;47128;-83
2021/07/16 03:07:59;;;;;;;;;12.00;11.50;;;;;;;;5058722;28;47741;-83
2021/07/16 03:10:36;;;;;;;;;13.25;12.75;;;;;;;;5058484;28;47001;-83
2021/07/16 03:13:02;;;;;;;;;12.25;12.25;;;;;;;;5058280;28;46987;-83
2021/07/16 03:15:28;;;;;;;;;13.00;11.00;;;;;;;;5058921;28;46749;-83
2021/07/16 03:17:54;;;;;;;;;14.75;12.25;;;;;;;;5058429;28;47070;-83
2021/07/16 03:20:24;;;;;;;;;13.00;12.00;;;;;;;;5058900;28;47002;-84
2021/07/16 03:22:50;;;;;;;;;8.25;8.25;;;;;;;;5058546;28;46881;-83
2021/07/16 03:25:16;;;;;;;;;11.25;10.75;;;;;;;;5058892;28;46977;-83
2021/07/16 03:27:42;;;;;;;;;11.25;10.25;;;;;;;;5058060;28;47105;-82
2021/07/16 03:30:18;;;;;;;;;9.00;9.00;;;;;;;;5058606;28;46857;-83
2021/07/16 03:32:43;;;;;;;;;10.50;10.50;;;;;;;;5059522;28;46958;-84
2021/07/16 03:35:09;;;;;;;;;8.25;8.25;;;;;;;;5058672;28;46972;-83
2021/07/16 03:37:34;;;;;;;;;10.75;9.50;;;;;;;;5058249;28;47155;-83
2021/07/16 03:40:00;;;;;;;;;8.50;8.00;;;;;;;;5058297;28;46967;-83
2021/07/16 03:42:25;;;;;;;;;12.25;9.75;;;;;;;;5057953;28;46860;-83
2021/07/16 03:44:51;;;;;;;;;12.50;11.00;;;;;;;;5040289;28;46988;-83
2021/07/16 03:47:16;;;;;;;;;13.50;12.00;;;;;;;;5058104;28;47031;-83
2021/07/16 03:49:43;;;;;;;;;9.75;8.75;;;;;;;;5058240;28;47102;-83
2021/07/16 03:52:08;;;;;;;;;11.25;9.25;;;;;;;;5058118;28;46964;-83
2021/07/16 03:54:34;;;;;;;;;12.75;12.75;;;;;;;;5058365;28;47063;-83
2021/07/16 03:57:00;;;;;;;;;11.00;10.50;;;;;;;;5057732;28;47149;-83
2021/07/16 03:59:26;;;;;;;;;12.50;11.25;;;;;;;;5057866;28;46909;-83
2021/07/16 04:01:52;;;;;;;;;12.00;10.50;;;;;;;;5058111;28;46854;-84
2021/07/16 04:04:17;;;;;;;;;14.25;11.00;;;;;;;;5040079;28;46785;-83
2021/07/16 04:06:50;;;;;;;;;11.00;10.25;;;;;;;;5057876;28;47699;-83
2021/07/16 04:09:28;;;;;;;;;10.50;10.00;;;;;;;;5057810;28;46711;-84
2021/07/16 04:12:06;;;;;;;;;11.25;10.50;;;;;;;;5057243;28;47159;-83
2021/07/16 04:14:33;;;;;;;;;10.75;10.75;;;;;;;;5058017;28;47046;-83
2021/07/16 04:16:58;;;;;;;;;10.50;9.50;;;;;;;;5039445;28;48379;-83
2021/07/16 04:19:23;;;;;;;;;12.00;11.00;;;;;;;;5057123;28;46776;-83
2021/07/16 04:21:49;;;;;;;;;9.50;8.50;;;;;;;;5064853;28;46844;-83
2021/07/16 04:24:14;;;;;;;;;11.50;9.00;;;;;;;;5057876;28;47301;-83
2021/07/16 04:26:39;;;;;;;;;13.00;11.00;;;;;;;;5057289;28;46862;-83
2021/07/16 04:29:04;;;;;;;;;12.75;9.75;;;;;;;;5039237;28;46810;-83
2021/07/16 04:31:31;;;;;;;;;9.50;8.00;;;;;;;;5057482;28;46939;-83
2021/07/16 04:33:56;;;;;;;;;8.25;6.50;;;;;;;;5050982;28;46972;-83
2021/07/16 04:36:21;;;;;;;;;7.50;7.50;;;;;;;;5059312;28;48134;-83
2021/07/16 04:38:47;;;;;;;;;12.25;11.25;;;;;;;;5057684;28;46892;-83
2021/07/16 04:41:12;;;;;;;;;11.00;9.75;;;;;;;;5057445;28;46884;-83
2021/07/16 04:43:37;;;;;;;;;11.00;10.00;;;;;;;;5057354;28;46820;-84
2021/07/16 04:46:02;;;;;;;;;7.00;7.00;;;;;;;;5038928;28;47168;-83
2021/07/16 04:48:28;;;;;;;;;10.00;9.00;;;;;;;;5057330;28;46861;-83
2021/07/16 04:50:53;;;;;;;;;7.75;7.75;;;;;;;;5057375;28;46908;-84
2021/07/16 04:53:18;;;;;;;;;9.25;8.75;;;;;;;;5057538;28;47043;-83
2021/07/16 04:55:44;;;;;;;;;9.00;9.00;;;;;;;;5057091;28;46862;-83
2021/07/16 04:58:09;;;;;;;;;8.50;7.75;;;;;;;;5057045;28;46936;-84
2021/07/16 05:00:34;;;;;;;;;9.75;9.75;;;;;;;;5057229;28;46992;-83
2021/07/16 05:03:01;;;;;;;;;8.00;6.00;;;;;;;;5057633;28;46973;-83
2021/07/16 05:05:26;;;;;;;;;8.00;7.00;;;;;;;;5057084;28;48205;-82
2021/07/16 05:07:51;;;;;;;;;10.00;10.00;;;;;;;;5057246;28;47019;-83
2021/07/16 05:10:17;;;;;;;;;11.00;9.25;;;;;;;;5056907;28;46929;-83
2021/07/16 05:12:43;;;;;;;;;7.25;7.25;;;;;;;;5038900;28;46984;-83
2021/07/16 05:15:09;;;;;;;;;11.00;10.00;;;;;;;;5056777;28;47758;-83
2021/07/16 05:17:36;;;;;;;;;10.00;9.00;;;;;;;;5057085;28;46936;-83
2021/07/16 05:20:02;;;;;;;;;10.00;9.50;;;;;;;;5056889;28;46941;-83
2021/07/16 05:22:28;;;;;;;;;9.25;9.25;;;;;;;;5064643;28;46847;-83
2021/07/16 05:24:53;;;;;;;;;9.50;8.00;;;;;;;;5056758;28;48031;-83
2021/07/16 05:27:18;;;;;;;;;8.75;7.00;;;;;;;;5056668;28;47122;-83
2021/07/16 05:29:43;;;;;;;;;9.50;8.25;;;;;;;;5056758;28;46965;-83
2021/07/16 05:32:09;;;;;;;;;7.75;6.25;;;;;;;;5059957;28;46940;-83
2021/07/16 05:34:34;;;;;;;;;6.00;6.00;;;;;;;;5073745;27;47009;-83
2021/07/16 05:36:59;;;;;;;;;7.50;7.50;;;;;;;;5060453;28;46930;-83
2021/07/16 05:39:25;;;;;;;;;9.50;7.00;;;;;;;;5060427;28;47005;-83
2021/07/16 05:41:50;;;;;;;;;9.00;8.50;;;;;;;;5041973;28;46861;-83
2021/07/16 05:44:15;;;;;;;;;7.00;6.50;;;;;;;;5059988;28;46996;-83
2021/07/16 05:46:41;;;;;;;;;10.00;8.00;;;;;;;;5041990;28;47035;-83
2021/07/16 05:49:06;;;;;;;;;7.50;7.00;;;;;;;;5060063;28;47134;-83
2021/07/16 05:51:31;;;;;;;;;8.75;7.00;;;;;;;;5060367;28;47312;-83
2021/07/16 05:53:56;;;;;;;;;11.00;10.25;;;;;;;;5041537;28;49095;-82
2021/07/16 05:56:22;;;;;;;;;8.00;7.00;;;;;;;;5059772;28;46956;-83
2021/07/16 05:58:47;;;;;;;;;11.75;8.25;;;;;;;;5059798;28;47149;-83
2021/07/16 06:01:12;;;;;;;;;6.75;6.25;;;;;;;;5041887;28;47232;-83
2021/07/16 06:03:38;;;;;;;;;8.25;7.00;;;;;;;;5059758;28;46967;-83
2021/07/16 06:06:03;;;;;;;;;7.50;6.50;;;;;;;;5060084;28;47101;-83
2021/07/16 06:08:28;;;;;;;;;8.75;8.00;;;;;;;;5059821;28;46949;-83
2021/07/16 06:10:54;;;;;;;;;8.00;8.00;;;;;;;;5041665;28;46790;-83
2021/07/16 06:13:19;;;;;;;;;10.50;8.00;;;;;;;;5059072;28;47715;-83
2021/07/16 06:15:44;;;;;;;;;10.75;7.75;;;;;;;;5059819;28;46693;-83
2021/07/16 06:18:10;;;;;;;;;6.25;6.00;;;;;;;;5059622;28;46883;-83
2021/07/16 06:20:35;;;;;;;;;6.00;6.00;;;;;;;;5061887;28;46844;-83
2021/07/16 06:23:00;;;;;;;;;8.00;8.00;;;;;;;;5063817;28;47691;-83
2021/07/16 06:25:26;;;;;;;;;6.75;5.00;;;;;;;;5041304;28;46980;-83
2021/07/16 06:27:51;;;;;;;;;9.75;8.75;;;;;;;;5059045;28;46809;-83
2021/07/16 06:30:17;;;;;;;;;6.25;6.25;;;;;;;;5059788;28;46835;-83
2021/07/16 06:32:42;;;;;;;;;7.75;6.25;;;;;;;;5042051;27;47086;-83
2021/07/16 06:35:08;;;;;;;;;8.50;7.00;;;;;;;;5071418;28;46795;-84
2021/07/16 06:37:34;;;;;;;;;5.75;5.75;;;;;;;;5059336;28;47128;-83
2021/07/16 06:40:01;;;;;;;;;5.50;5.00;;;;;;;;5059851;28;47006;-83
2021/07/16 06:42:26;;;;;;;;;6.75;5.00;;;;;;;;5058379;28;47950;-83
2021/07/16 06:44:52;;;;;;;;;7.75;7.00;;;;;;;;5059335;28;46963;-83
2021/07/16 06:47:17;;;;;;;;;6.25;4.75;;;;;;;;5059092;28;46853;-83
2021/07/16 06:49:42;;;;;;;;;5.75;5.00;;;;;;;;5059570;28;46896;-83
2021/07/16 06:52:08;;;;;;;;;6.00;6.00;;;;;;;;5058777;28;47715;-82
2021/07/16 06:54:33;;;;;;;;;5.75;5.75;;;;;;;;5059280;28;47111;-83
2021/07/16 06:56:59;;;;;;;;;8.00;5.75;;;;;;;;5040429;28;46955;-84
2021/07/16 06:59:24;;;;;;;;;6.25;5.50;;;;;;;;5040854;28;46825;-83
2021/07/16 07:01:50;;;;;;;;;5.00;5.00;;;;;;;;5058758;28;47047;-83
2021/07/16 07:04:15;;;;;;;;;8.50;4.50;;;;;;;;5059188;28;46854;-83
2021/07/16 07:06:40;;;;;;;;;7.00;4.50;;;;;;;;5058855;28;46917;-83
2021/07/16 07:09:05;;;;;;;;;5.50;4.75;;;;;;;;5040806;28;46759;-82
2021/07/16 07:11:31;;;;;;;;;4.25;3.75;;;;;;;;5040205;28;48964;-83
2021/07/16 07:13:56;;;;;;;;;3.25;3.25;;;;;;;;5058615;28;46756;-83
2021/07/16 07:16:22;;;;;;;;;7.50;5.00;;;;;;;;5058836;28;46783;-82
2021/07/16 07:18:47;;;;;;;;;5.50;3.00;;;;;;;;5058978;28;47013;-83
2021/07/16 07:21:13;;;;;;;;;5.00;3.75;;;;;;;;5065677;28;47867;-83
2021/07/16 07:23:39;;;;;;;;;4.00;4.00;;;;;;;;5058731;28;46947;-83
2021/07/16 07:26:04;;;;;;;;;4.00;4.00;;;;;;;;5058713;28;47008;-82
2021/07/16 07:28:29;;;;;;;;;4.50;4.00;;;;;;;;5058412;28;46972;-82
2021/07/16 07:30:55;;;;;;;;;6.25;4.00;;;;;;;;5058341;28;46946;-82
2021/07/16 07:33:20;;;;;;;;;5.00;5.00;;;;;;;;5064830;28;47003;-83
2021/07/16 07:35:45;;;;;;;;;6.00;4.00;;;;;;;;5065258;28;46831;-83
2021/07/16 07:38:11;;;;;;;;;2.50;2.50;;;;;;;;5058549;28;46967;-83
2021/07/16 07:40:36;;;;;;;;;4.00;3.00;;;;;;;;5058231;28;47627;-83
2021/07/16 07:43:03;;;;;;;;;4.00;4.00;;;;;;;;5057861;28;47017;-83
2021/07/16 07:45:28;;;;;;;;;6.25;5.25;;;;;;;;5058175;28;46873;-82
2021/07/16 07:47:54;;;;;;;;;4.00;3.25;;;;;;;;5058373;28;47208;-83
2021/07/16 07:50:20;;;;;;;;;8.25;6.00;;;;;;;;5058103;28;48047;-83
2021/07/16 07:52:46;;;;;;;;;3.00;2.00;;;;;;;;5057685;28;47110;-82
2021/07/16 07:55:13;;;;;;;;;4.00;4.00;;;;;;;;5057621;28;46904;-83
2021/07/16 07:57:38;;;;;;;;;3.75;3.00;;;;;;;;5039577;28;47160;-83
2021/07/16 08:00:05;;;;;;;;;5.25;4.00;;;;;;;;5058003;28;47162;-83
2021/07/16 08:02:30;;;;;;;;;1.75;1.75;;;;;;;;5065247;28;47098;-82
2021/07/16 08:04:55;;;;;;;;;4.75;4.75;;;;;;;;5078419;28;46893;-83
2021/07/16 08:07:21;;;;;;;;;4.75;4.00;;;;;;;;5078380;28;47011;-83
2021/07/16 08:09:46;;;;;;;;;4.50;3.00;;;;;;;;5078187;28;47045;-83
2021/07/16 08:12:12;;;;;;;;;5.50;3.00;;;;;;;;5077592;28;46901;-83
2021/07/16 08:14:38;;;;;;;;;4.75;2.50;;;;;;;;5078163;28;46959;-84
2021/07/16 08:17:04;;;;;;;;;4.00;2.00;;;;;;;;5078299;28;47312;-83
2021/07/16 08:19:29;;;;;;;;;4.25;2.25;;;;;;;;5059710;28;47095;-83
2021/07/16 08:21:55;;;;;;;;;5.25;4.00;;;;;;;;5071729;28;46801;-83
2021/07/16 08:24:21;;;;;;;;;1.25;1.25;;;;;;;;5057775;28;46889;-83
2021/07/16 08:26:46;;;;;;;;;4.00;2.25;;;;;;;;5039295;28;46827;-83
2021/07/16 08:29:12;;;;;;;;;2.00;1.00;;;;;;;;5057437;28;47855;-83
2021/07/16 08:31:39;;;;;;;;;1.75;1.75;;;;;;;;5057589;28;46848;-83
2021/07/16 08:34:05;;;;;;;;;1.00;0.75;;;;;;;;5070382;28;46971;-82
2021/07/16 08:36:30;;;;;;;;;1.00;1.00;;;;;;;;5058486;28;47024;-83
2021/07/16 08:38:56;;;;;;;;;3.25;3.25;;;;;;;;5057516;28;46960;-83
2021/07/16 08:41:21;;;;;;;;;3.25;2.75;;;;;;;;5038756;28;47474;-83
2021/07/16 08:43:48;;;;;;;;;2.25;1.75;;;;;;;;5057574;28;46946;-83
2021/07/16 08:46:13;;;;;;;;;3.25;2.00;;;;;;;;5057436;28;47302;-83
2021/07/16 08:48:40;;;;;;;;;1.50;1.50;;;;;;;;5057457;28;47207;-83
2021/07/16 08:51:06;;;;;;;;;2.50;2.50;;;;;;;;5057241;28;46782;-84
2021/07/16 08:53:33;;;;;;;;;0.75;0.75;;;;;;;;5057410;28;46853;-83
2021/07/16 08:55:58;;;;;;;;;3.25;1.25;;;;;;;;5039151;28;46846;-82
2021/07/16 08:58:24;;;;;;;;;2.25;2.25;;;;;;;;5057072;28;47753;-83
2021/07/16 09:00:49;;;;;;;;;0.75;0.50;;;;;;;;5039047;28;47043;-83
2021/07/16 09:03:15;;;;;;;;;1.75;1.75;;;;;;;;5057668;28;47021;-84
2021/07/16 09:05:42;;;;;;;;;3.75;2.00;;;;;;;;5059633;28;46871;-83
2021/07/16 09:08:13;;;;;;;;;1.00;1.00;;;;;;;;5042480;28;48919;-83
2021/07/16 09:10:59;;;;;;;;;1.75;1.75;;;;;;;;5067941;28;47108;-83
2021/07/16 09:13:29;;;;;;;;;1.50;1.50;;;;;;;;5080052;28;47127;-84
2021/07/16 09:15:59;;;;;;;;;2.00;2.00;;;;;;;;5081118;28;46778;-84
2021/07/16 09:18:34;;;;;;;;;1.75;1.75;;;;;;;;5080769;28;46961;-83
2021/07/16 09:21:03;;;;;;;;;2.00;2.00;;;;;;;;5080737;28;47091;-84
2021/07/16 09:23:33;;;;;;;;;1.00;1.00;;;;;;;;5061260;28;46995;-84
2021/07/16 09:26:26;;;;;;;;;3.00;3.00;;;;;;;;5060771;28;46801;-85
2021/07/16 09:28:51;;;;;;;;;1.75;0.00;;;;;;;;5069071;28;46906;-84
2021/07/16 09:31:16;;;;;;;;;1.75;1.75;;;;;;;;5080599;28;46925;-83
2021/07/16 09:33:59;;;;;;;;;3.00;2.25;;;;;;;;5080686;27;46884;-83
2021/07/16 09:36:27;;;;;;;;;5.00;5.00;;;;;;;;5062016;28;46827;-83
2021/07/16 09:38:54;;;;;;;;;3.75;3.75;;;;;;;;5060400;28;48144;-84
2021/07/16 09:41:19;;;;;;;;;3.75;3.75;;;;;;;;5059811;28;47090;-84
2021/07/16 09:43:48;;;;;;;;;4.00;3.75;;;;;;;;5060242;28;47255;-83
2021/07/16 09:46:14;;;;;;;;;3.50;2.50;;;;;;;;5060207;28;46795;-83
2021/07/16 09:48:41;;;;;;;;;8.75;4.25;;;;;;;;5059988;28;46791;-83
2021/07/16 09:51:14;;;;;;;;;5.25;5.25;;;;;;;;5059996;28;47058;-84
2021/07/16 09:53:44;;;;;;;;;4.25;4.25;;;;;;;;5060075;28;46976;-83
2021/07/16 09:56:13;;;;;;;;;3.00;3.00;;;;;;;;5067328;28;47158;-83
2021/07/16 09:58:39;;;;;;;;;5.00;4.75;;;;;;;;5079979;28;47910;-84
2021/07/16 10:01:04;;;;;;;;;5.00;3.00;;;;;;;;5080269;28;46862;-84
2021/07/16 10:03:30;;;;;;;;;2.25;2.25;;;;;;;;5081261;28;46775;-83
2021/07/16 10:05:57;;;;;;;;;3.00;2.00;;;;;;;;5080982;28;46805;-83
2021/07/16 10:08:23;;;;;;;;;4.75;2.75;;;;;;;;5079884;28;47763;-84
2021/07/16 10:10:49;;;;;;;;;1.00;1.00;;;;;;;;5080027;28;46790;-83
2021/07/16 10:13:16;;;;;;;;;2.00;2.00;;;;;;;;5079665;28;47081;-83
2021/07/16 10:15:43;;;;;;;;;3.00;3.00;;;;;;;;5080439;28;46869;-84
2021/07/16 10:18:08;;;;;;;;;3.00;3.00;;;;;;;;5079326;28;47401;-83
2021/07/16 10:20:38;;;;;;;;;5.25;5.25;;;;;;;;5080142;28;46989;-84
2021/07/16 10:23:03;;;;;;;;;6.50;4.50;;;;;;;;5046865;28;46837;-83
2021/07/16 10:25:29;;;;;;;;;4.75;4.25;;;;;;;;5059810;28;47258;-84
2021/07/16 10:27:54;;;;;;;;;3.75;3.75;;;;;;;;5072458;28;47792;-83
2021/07/16 10:30:20;;;;;;;;;1.50;1.00;;;;;;;;5041232;28;47742;-84
2021/07/16 10:32:45;;;;;;;;;7.00;5.25;;;;;;;;5061011;27;46998;-83
2021/07/16 10:35:14;;;;;;;;;5.75;4.00;;;;;;;;5071789;28;47098;-83
2021/07/16 10:37:39;;;;;;;;;10.25;7.75;;;;;;;;5041057;28;49597;-84
2021/07/16 10:40:05;;;;;;;;;6.00;6.00;;;;;;;;5041283;28;46948;-84
2021/07/16 10:42:30;;;;;;;;;6.00;5.00;;;;;;;;5059123;28;47127;-83
2021/07/16 10:44:58;;;;;;;;;9.00;5.75;;;;;;;;5041493;28;46846;-84
2021/07/16 10:47:34;;;;;;;;;7.25;5.50;;;;;;;;5040965;28;49737;-87
2021/07/16 10:49:59;;;;;;;;;4.25;4.25;;;;;;;;5059269;28;47116;-84
2021/07/16 10:52:43;;;;;;;;;5.50;4.50;;;;;;;;5059441;28;46991;-84
2021/07/16 10:55:09;;;;;;;;;7.00;5.25;;;;;;;;5059561;28;46763;-84
2021/07/16 10:57:45;;;;;;;;;11.50;7.25;;;;;;;;5058503;28;47036;-84
2021/07/16 11:00:33;;;;;;;;;7.50;6.50;;;;;;;;5059190;28;47137;-84
2021/07/16 11:03:06;;;;;;;;;9.50;8.00;;;;;;;;5058983;28;46847;-84
2021/07/16 11:05:31;;;;;;;;;7.75;7.75;;;;;;;;5059153;28;47110;-85
2021/07/16 11:07:57;;;;;;;;;8.00;6.50;;;;;;;;5058771;28;46996;-84
2021/07/16 11:10:41;;;;;;;;;7.50;7.50;;;;;;;;5058754;28;47145;-84
2021/07/16 11:13:24;;;;;;;;;8.00;8.00;;;;;;;;5058358;28;47008;-84
2021/07/16 11:15:50;;;;;;;;;9.25;9.25;;;;;;;;5067799;28;46826;-85
2021/07/16 11:18:26;;;;;;;;;11.00;9.25;;;;;;;;5078916;28;46955;-84
2021/07/16 11:20:51;;;;;;;;;8.75;6.00;;;;;;;;5078973;28;47100;-85
2021/07/16 11:23:19;;;;;;;;;8.00;8.00;;;;;;;;5062079;28;46880;-84
2021/07/16 11:25:45;;;;;;;;;9.25;7.00;;;;;;;;5058892;28;47173;-84
2021/07/16 11:28:10;;;;;;;;;7.25;6.00;;;;;;;;5038830;28;48293;-84
2021/07/16 11:30:36;;;;;;;;;8.25;6.25;;;;;;;;5040362;28;46989;-85
2021/07/16 11:33:02;;;;;;;;;7.75;6.25;;;;;;;;5062175;27;46923;-84
2021/07/16 11:35:28;;;;;;;;;7.00;6.00;;;;;;;;5068573;28;46821;-84
2021/07/16 11:37:53;;;;;;;;;7.75;6.00;;;;;;;;5058228;28;47919;-84
2021/07/16 11:40:20;;;;;;;;;5.50;5.50;;;;;;;;5058379;28;46795;-84
2021/07/16 11:42:46;;;;;;;;;6.25;6.25;;;;;;;;5058022;28;46903;-84
2021/07/16 11:45:18;;;;;;;;;6.25;5.00;;;;;;;;5058612;28;47220;-84
2021/07/16 11:47:43;;;;;;;;;7.50;5.00;;;;;;;;5058095;28;46920;-84
2021/07/16 11:50:10;;;;;;;;;15.00;10.50;;;;;;;;5058460;28;46828;-85
2021/07/16 11:52:36;;;;;;;;;8.50;7.00;;;;;;;;5058111;28;46982;-85
2021/07/16 11:55:04;;;;;;;;;10.00;7.25;;;;;;;;5058386;28;47053;-85
2021/07/16 11:57:29;;;;;;;;;12.50;9.00;;;;;;;;5057539;28;47935;-85
2021/07/16 11:59:54;;;;;;;;;11.25;8.00;;;;;;;;5058183;28;46779;-85
2021/07/16 12:02:23;;;;;;;;;8.00;7.25;;;;;;;;5058029;28;46883;-85
2021/07/16 12:04:51;;;;;;;;;13.25;7.25;;;;;;;;5058292;28;47070;-85
2021/07/16 12:07:17;;;;;;;;;14.50;10.25;;;;;;;;5057863;28;48127;-85
2021/07/16 12:09:44;;;;;;;;;9.50;8.00;;;;;;;;5058019;28;47098;-85
2021/07/16 12:12:11;;;;;;;;;8.75;8.00;;;;;;;;5057189;28;46881;-85
2021/07/16 12:14:55;;;;;;;;;14.50;11.25;;;;;;;;5058042;28;46772;-85
2021/07/16 12:17:24;;;;;;;;;7.25;7.25;;;;;;;;5065626;28;48243;-85
2021/07/16 12:19:50;;;;;;;;;11.50;7.00;;;;;;;;5078256;28;46997;-85
2021/07/16 12:22:18;;;;;;;;;10.00;9.00;;;;;;;;5069974;28;47110;-85
2021/07/16 12:24:43;;;;;;;;;11.25;9.00;;;;;;;;5057863;28;47008;-85
2021/07/16 12:27:10;;;;;;;;;8.50;8.00;;;;;;;;5057692;28;48049;-84
2021/07/16 12:29:36;;;;;;;;;11.25;10.25;;;;;;;;5057557;28;46801;-85
2021/07/16 12:32:02;;;;;;;;;13.50;10.25;;;;;;;;5039473;28;46850;-85
2021/07/16 12:34:27;;;;;;;;;13.25;12.50;;;;;;;;5071434;28;46953;-85
2021/07/16 12:37:09;;;;;;;;;11.00;9.00;;;;;;;;5039517;28;48335;-84
2021/07/16 12:39:35;;;;;;;;;12.25;10.25;;;;;;;;5058015;28;46793;-85
2021/07/16 12:42:10;;;;;;;;;11.00;9.00;;;;;;;;5061190;28;46874;-85
2021/07/16 12:44:35;;;;;;;;;8.50;7.50;;;;;;;;5061071;28;46952;-84
2021/07/16 12:47:01;;;;;;;;;16.00;13.00;;;;;;;;5061140;28;46869;-84
2021/07/16 12:49:26;;;;;;;;;11.50;11.50;;;;;;;;5060925;28;46908;-84
2021/07/16 12:51:51;;;;;;;;;10.75;8.00;;;;;;;;5061058;28;46915;-84
2021/07/16 12:54:24;;;;;;;;;10.00;10.00;;;;;;;;5061008;28;46833;-84
2021/07/16 12:56:49;;;;;;;;;9.25;9.25;;;;;;;;5060659;28;47003;-84
2021/07/16 12:59:22;;;;;;;;;8.75;8.75;;;;;;;;5060582;28;46888;-84
2021/07/16 13:01:51;;;;;;;;;14.75;12.25;;;;;;;;5060878;28;47046;-84
2021/07/16 13:04:17;;;;;;;;;13.00;11.00;;;;;;;;5061384;28;47052;-84
2021/07/16 13:06:43;;;;;;;;;16.25;14.00;;;;;;;;5060478;28;47926;-84
2021/07/16 13:09:09;;;;;;;;;12.75;10.25;;;;;;;;5061049;28;47002;-84
2021/07/16 13:11:35;;;;;;;;;13.75;10.75;;;;;;;;5060429;28;46932;-83
2021/07/16 13:14:00;;;;;;;;;17.25;14.50;;;;;;;;5042560;28;47335;-84
2021/07/16 13:16:26;;;;;;;;;15.25;12.50;;;;;;;;5060634;28;47702;-84
2021/07/16 13:18:55;;;;;;;;;19.00;16.50;;;;;;;;5060586;28;46858;-84
2021/07/16 13:21:21;;;;;;;;;15.00;11.75;;;;;;;;5049814;28;46882;-84
2021/07/16 13:23:46;;;;;;;;;14.00;13.25;;;;;;;;5060897;28;46787;-84
2021/07/16 13:26:12;;;;;;;;;12.25;11.75;;;;;;;;5060031;28;46913;-84
2021/07/16 13:28:38;;;;;;;;;15.00;9.75;;;;;;;;5060328;28;47073;-84
2021/07/16 13:31:05;;;;;;;;;16.50;14.75;;;;;;;;5060457;28;47001;-84
2021/07/16 13:33:30;;;;;;;;;14.75;14.00;;;;;;;;5068429;27;47146;-83
2021/07/16 13:35:57;;;;;;;;;10.00;10.00;;;;;;;;5066022;28;46876;-83
2021/07/16 13:38:23;;;;;;;;;15.50;14.25;;;;;;;;5060359;28;47038;-83
2021/07/16 13:40:49;;;;;;;;;13.00;12.25;;;;;;;;5059983;28;47166;-84
2021/07/16 13:43:14;;;;;;;;;23.50;16.50;;;;;;;;5060196;28;47105;-84
2021/07/16 13:45:40;;;;;;;;;15.25;12.25;;;;;;;;5059959;28;47721;-83
2021/07/16 13:48:05;;;;;;;;;14.00;13.00;;;;;;;;5060070;28;47017;-83
2021/07/16 13:50:31;;;;;;;;;15.00;13.00;;;;;;;;5060107;28;46898;-83
2021/07/16 13:52:56;;;;;;;;;12.75;12.75;;;;;;;;5041380;28;46856;-83
2021/07/16 13:55:22;;;;;;;;;9.00;8.00;;;;;;;;5060066;28;46871;-83
2021/07/16 13:57:47;;;;;;;;;15.50;13.75;;;;;;;;5059739;28;46705;-84
2021/07/16 14:00:13;;;;;;;;;18.00;15.75;;;;;;;;5059819;28;47265;-84
2021/07/16 14:02:44;;;;;;;;;9.00;8.25;;;;;;;;5048572;28;46863;-84
2021/07/16 14:05:09;;;;;;;;;13.50;10.25;;;;;;;;5079978;28;47731;-83
2021/07/16 14:07:35;;;;;;;;;11.50;11.25;;;;;;;;5080366;28;47181;-83
2021/07/16 14:10:00;;;;;;;;;19.75;12.25;;;;;;;;5065599;28;46831;-84
2021/07/16 14:12:25;;;;;;;;;14.00;11.50;;;;;;;;5041202;28;47251;-83
2021/07/16 14:14:51;;;;;;;;;15.75;13.25;;;;;;;;5059469;28;46845;-83
2021/07/16 14:17:17;;;;;;;;;12.25;11.50;;;;;;;;5059761;28;46962;-85
2021/07/16 14:19:42;;;;;;;;;10.75;9.00;;;;;;;;5059425;28;47093;-84
2021/07/16 14:22:07;;;;;;;;;17.00;15.00;;;;;;;;5067886;28;46801;-84
2021/07/16 14:24:33;;;;;;;;;13.00;12.00;;;;;;;;5041369;28;49383;-84
2021/07/16 14:26:59;;;;;;;;;14.50;9.75;;;;;;;;5066258;28;46839;-84